Time;durP1;ratioP1;P1;durP2;ratioP2;P2;SDS_P1;SDS_P2;PMS_P1;PMS_P2;Temp;Humidity;BMP_temperature;BMP_pressure;BME280_temperature;BME280_humidity;BME280_pressure;Samples;Min_cycle;Max_cycle;Signal;HPM_P1;HPM_P2
2022/10/29 00:01:03;;;;;;;25.85;12.25;;;;;;;8.11;82.33;100332.66;1697414;84;21267;-78
2022/10/29 00:03:35;;;;;;;24.52;12.75;;;;;;;8.07;81.04;100336.09;1694007;84;21060;-78
2022/10/29 00:06:06;;;;;;;26.10;12.73;;;;;;;8.07;81.38;100337.38;1695971;82;21063;-79
2022/10/29 00:08:36;;;;;;;28.47;13.83;;;;;;;8.09;81.64;100334.81;1674479;85;21023;-79
2022/10/29 00:11:12;;;;;;;27.25;12.78;;;;;;;8.06;81.73;100332.22;1700880;82;21378;-79
2022/10/29 00:13:41;;;;;;;31.05;12.58;;;;;;;7.94;82.22;100314.89;1708965;84;21027;-78
2022/10/29 00:16:18;;;;;;;33.28;14.00;;;;;;;7.97;81.46;100329.99;1710006;83;21253;-80
2022/10/29 00:18:46;;;;;;;28.10;13.45;;;;;;;7.91;82.21;100321.34;1701739;83;21055;-78
2022/10/29 00:21:18;;;;;;;35.60;14.23;;;;;;;7.90;81.06;100331.28;1694610;83;21050;-79
2022/10/29 00:23:46;;;;;;;30.72;14.25;;;;;;;7.90;81.86;100329.98;1692488;85;21063;-78
2022/10/29 00:26:15;;;;;;;45.58;15.88;;;;;;;7.93;82.20;100331.27;1710742;82;21097;-79
2022/10/29 00:28:44;;;;;;;38.15;15.83;;;;;;;7.96;82.91;100326.98;1712848;83;21035;-78
2022/10/29 00:31:15;;;;;;;34.70;15.20;;;;;;;8.02;83.06;100325.27;1712924;83;21019;-79
2022/10/29 00:33:44;;;;;;;40.00;15.18;;;;;;;8.06;82.68;100325.75;1709352;83;21737;-79
2022/10/29 00:36:16;;;;;;;37.67;16.48;;;;;;;8.05;82.79;100313.20;1698181;83;21578;-77
2022/10/29 00:38:44;;;;;;;36.70;14.83;;;;;;;8.12;82.59;100323.19;1678889;84;21652;-79
2022/10/29 00:41:16;;;;;;;41.35;14.68;;;;;;;8.12;82.32;100314.98;1704015;83;21082;-77
2022/10/29 00:44:12;;;;;;;33.65;14.40;;;;;;;8.15;82.78;100318.86;1705031;82;20999;-78
2022/10/29 00:46:44;;;;;;;29.70;14.60;;;;;;;8.12;82.99;100314.98;1685383;85;21714;-78
2022/10/29 00:49:14;;;;;;;33.30;15.15;;;;;;;8.12;83.15;100313.68;1701757;82;21074;-79
2022/10/29 00:51:42;;;;;;;34.45;13.78;;;;;;;8.12;82.70;100315.41;1715920;83;21031;-79
2022/10/29 00:54:12;;;;;;;32.60;14.87;;;;;;;8.10;82.48;100311.95;1711131;83;21067;-80
2022/10/29 00:56:51;;;;;;;29.60;13.55;;;;;;;8.06;81.73;100316.68;1700923;83;21027;-79
2022/10/29 00:59:19;;;;;;;24.63;10.98;;;;;;;7.97;81.27;100313.59;1705486;82;21027;-79
2022/10/29 01:01:48;;;;;;;28.00;11.90;;;;;;;7.89;81.10;100321.77;1702183;82;21066;-79
2022/10/29 01:04:17;;;;;;;21.35;11.05;;;;;;;7.81;80.92;100313.09;1694804;82;21051;-79
2022/10/29 01:06:45;;;;;;;36.95;14.20;;;;;;;7.76;80.77;100315.66;1701405;82;21003;-83
2022/10/29 01:09:14;;;;;;;44.65;14.75;;;;;;;7.65;80.97;100311.70;1707534;82;21046;-79
2022/10/29 01:12:12;;;;;;;27.55;12.85;;;;;;;7.62;81.38;100305.22;1702833;83;21035;-79
2022/10/29 01:14:54;;;;;;;22.40;11.30;;;;;;;7.59;81.86;100303.89;1705592;83;21098;-78
2022/10/29 01:17:42;;;;;;;27.67;11.53;;;;;;;7.57;82.32;100297.84;1678457;84;21048;-77
2022/10/29 01:20:41;;;;;;;28.38;12.50;;;;;;;7.56;82.64;100298.72;1713275;82;21082;-79
2022/10/29 01:23:40;;;;;;;40.43;15.18;;;;;;;7.56;82.46;100300.02;1672457;85;21019;-81
2022/10/29 01:26:49;;;;;;;65.55;18.17;;;;;;;7.56;82.34;100303.89;1670146;85;21127;-78
2022/10/29 01:30:03;;;;;;;38.30;14.87;;;;;;;7.57;81.90;100301.72;1671508;85;21086;-78
2022/10/29 01:32:52;;;;;;;33.40;13.85;;;;;;;7.49;82.03;100296.93;1654044;85;21114;-81
2022/10/29 01:35:34;;;;;;;25.23;13.80;;;;;;;7.42;81.53;100293.45;1673347;84;21053;-81
2022/10/29 01:38:10;;;;;;;29.12;12.60;;;;;;;7.38;82.26;100287.78;1670960;84;21083;-80
2022/10/29 01:40:58;;;;;;;35.85;14.73;;;;;;;7.31;81.36;100289.47;1699361;83;21518;-79
2022/10/29 01:43:46;;;;;;;29.82;12.85;;;;;;;7.27;81.71;100299.36;1720522;82;21554;-78
2022/10/29 01:46:39;;;;;;;30.57;13.22;;;;;;;7.27;82.28;100298.50;1707031;82;20999;-80
2022/10/29 01:49:12;;;;;;;39.88;14.90;;;;;;;7.30;82.71;100292.04;1692033;83;20990;-81
2022/10/29 01:51:40;;;;;;;38.33;15.03;;;;;;;7.30;82.79;100282.58;1667975;85;22149;-81
2022/10/29 01:54:10;;;;;;;37.00;13.80;;;;;;;7.43;82.90;100292.58;1681618;85;21579;-78
2022/10/29 01:56:38;;;;;;;30.92;13.05;;;;;;;7.47;82.72;100290.88;1682263;84;21051;-78
2022/10/29 01:59:10;;;;;;;31.65;12.78;;;;;;;7.51;82.56;100292.20;1686765;84;21038;-79
2022/10/29 02:02:07;;;;;;;31.37;13.50;;;;;;;7.52;82.61;100289.17;1691054;83;21042;-78
2022/10/29 02:05:07;;;;;;;32.20;12.90;;;;;;;7.53;82.49;100286.59;1695553;82;21014;-79
2022/10/29 02:07:46;;;;;;;31.90;12.25;;;;;;;7.56;82.17;100287.07;1701780;82;21065;-78
2022/10/29 02:10:29;;;;;;;34.45;13.98;;;;;;;7.55;81.90;100287.91;1686688;84;21562;-78
2022/10/29 02:12:56;;;;;;;32.40;14.63;;;;;;;7.54;81.95;100282.28;1673358;84;21052;-79
2022/10/29 02:15:37;;;;;;;36.33;13.48;;;;;;;7.55;81.60;100286.62;1670769;84;21119;-79
2022/10/29 02:18:07;;;;;;;35.68;15.40;;;;;;;7.45;80.78;100293.89;1669865;85;21315;-79
2022/10/29 02:20:39;;;;;;;34.10;13.83;;;;;;;7.35;81.04;100293.81;1681028;84;21005;-82
2022/10/29 02:23:07;;;;;;;39.53;14.95;;;;;;;7.33;81.09;100287.76;1674721;85;21031;-80
2022/10/29 02:25:34;;;;;;;40.95;13.28;;;;;;;7.28;81.21;100295.94;1656549;85;21143;-79
2022/10/29 02:28:02;;;;;;;34.25;12.95;;;;;;;7.24;81.25;100292.89;1658588;85;21019;-79
2022/10/29 02:30:30;;;;;;;26.82;12.47;;;;;;;7.23;81.41;100296.31;1679620;85;21044;-79
2022/10/29 02:32:58;;;;;;;31.57;12.65;;;;;;;7.15;81.11;100287.63;1677178;85;21542;-79
2022/10/29 02:35:25;;;;;;;34.35;13.38;;;;;;;7.12;82.45;100298.83;1671674;84;21055;-79
2022/10/29 02:37:53;;;;;;;31.05;12.18;;;;;;;7.13;82.34;100291.49;1678492;83;21054;-80
2022/10/29 02:40:21;;;;;;;33.58;13.53;;;;;;;7.09;82.10;100291.03;1688681;83;21023;-80
2022/10/29 02:42:48;;;;;;;65.10;24.30;;;;;;;7.08;82.49;100291.01;1690879;83;21043;-80
2022/10/29 02:45:16;;;;;;;53.52;17.23;;;;;;;7.07;82.74;100294.47;1673523;84;21688;-82
2022/10/29 02:47:44;;;;;;;40.38;17.12;;;;;;;7.02;82.41;100286.64;1665637;84;21552;-80
2022/10/29 02:50:12;;;;;;;37.08;15.32;;;;;;;7.00;83.40;100285.77;1672323;85;21070;-79
2022/10/29 02:52:39;;;;;;;42.50;15.32;;;;;;;7.03;84.14;100287.10;1677670;85;21048;-79
2022/10/29 02:55:08;;;;;;;37.95;14.53;;;;;;;7.07;84.19;100292.73;1666128;85;21046;-81
2022/10/29 02:57:36;;;;;;;41.28;14.03;;;;;;;7.13;84.74;100284.17;1680922;85;21027;-79
2022/10/29 03:00:05;;;;;;;31.15;12.35;;;;;;;7.11;83.44;100292.34;1675417;85;22255;-78
2022/10/29 03:02:32;;;;;;;28.20;11.97;;;;;;;6.98;82.92;100293.94;1680414;85;21682;-78
2022/10/29 03:05:00;;;;;;;33.67;13.00;;;;;;;6.92;83.33;100288.31;1672018;85;21071;-79
2022/10/29 03:07:28;;;;;;;32.20;11.12;;;;;;;6.94;84.37;100289.20;1681501;85;21027;-78
2022/10/29 03:09:55;;;;;;;23.30;11.68;;;;;;;6.96;83.97;100284.91;1676088;85;21068;-78
2022/10/29 03:12:23;;;;;;;22.52;11.35;;;;;;;6.99;84.54;100275.44;1681405;85;21074;-78
2022/10/29 03:14:51;;;;;;;20.08;10.03;;;;;;;7.05;83.75;100280.66;1677569;85;20999;-78
2022/10/29 03:17:19;;;;;;;20.95;10.32;;;;;;;7.00;84.80;100284.91;1623006;86;21083;-79
2022/10/29 03:19:46;;;;;;;23.60;10.68;;;;;;;7.00;85.49;100274.13;1659396;86;21080;-79
2022/10/29 03:22:14;;;;;;;22.02;10.40;;;;;;;7.06;86.05;100284.56;1617167;88;21054;-79
2022/10/29 03:24:42;;;;;;;26.23;11.55;;;;;;;7.12;86.32;100283.71;1640497;86;21065;-78
2022/10/29 03:27:10;;;;;;;28.62;11.48;;;;;;;7.12;85.96;100282.02;1649812;86;21015;-78
2022/10/29 03:29:37;;;;;;;26.50;11.40;;;;;;;7.11;85.21;100275.53;1652695;85;21943;-79
2022/10/29 03:32:05;;;;;;;34.63;13.05;;;;;;;7.11;85.69;100276.83;1653764;85;21047;-79
2022/10/29 03:34:33;;;;;;;24.05;11.57;;;;;;;7.11;86.55;100275.53;1641945;86;21007;-78
2022/10/29 03:37:00;;;;;;;25.23;11.05;;;;;;;7.06;86.26;100272.92;1635993;86;21421;-79
2022/10/29 03:39:28;;;;;;;26.57;12.80;;;;;;;7.07;86.42;100275.92;1655923;86;21050;-79
2022/10/29 03:41:56;;;;;;;34.20;12.30;;;;;;;7.11;86.14;100272.95;1641709;86;21050;-79
2022/10/29 03:44:23;;;;;;;27.90;10.90;;;;;;;7.11;87.01;100260.02;1651961;86;21054;-80
2022/10/29 03:46:51;;;;;;;30.60;11.12;;;;;;;7.13;86.36;100260.89;1645198;85;21046;-79
2022/10/29 03:49:18;;;;;;;26.23;11.15;;;;;;;7.13;85.08;100264.77;1652926;86;21060;-79
2022/10/29 03:51:46;;;;;;;31.93;11.93;;;;;;;7.07;86.64;100256.53;1644622;85;21031;-80
2022/10/29 03:54:14;;;;;;;28.70;12.15;;;;;;;7.10;87.59;100253.98;1643832;85;21495;-79
2022/10/29 03:56:41;;;;;;;29.15;12.73;;;;;;;7.17;87.49;100252.30;1663221;85;21131;-79
2022/10/29 03:59:09;;;;;;;28.23;12.15;;;;;;;7.25;88.08;100252.36;1662870;85;21031;-79
2022/10/29 04:01:36;;;;;;;32.93;11.48;;;;;;;7.26;87.55;100252.38;1636183;88;21032;-78
2022/10/29 04:04:04;;;;;;;30.72;12.30;;;;;;;7.31;87.83;100258.43;1660715;86;21020;-79
2022/10/29 04:06:32;;;;;;;30.12;12.25;;;;;;;7.37;88.28;100260.20;1627648;88;21082;-78
2022/10/29 04:09:00;;;;;;;27.27;10.78;;;;;;;7.34;88.94;100257.58;1624472;86;21008;-78
2022/10/29 04:11:27;;;;;;;24.40;10.35;;;;;;;7.33;88.96;100268.36;1659435;85;21097;-79
2022/10/29 04:13:55;;;;;;;28.30;12.15;;;;;;;7.30;88.44;100261.89;1661393;85;21082;-78
2022/10/29 04:16:22;;;;;;;27.05;11.45;;;;;;;7.34;89.31;100264.05;1668145;84;21594;-79
2022/10/29 04:18:51;;;;;;;31.60;12.50;;;;;;;7.34;88.99;100267.52;1689806;84;21071;-79
2022/10/29 04:21:18;;;;;;;26.33;11.00;;;;;;;7.42;89.23;100267.98;1701551;82;21063;-78
2022/10/29 04:23:48;;;;;;;27.75;11.68;;;;;;;7.48;89.61;100264.13;1691301;82;21015;-78
2022/10/29 04:26:15;;;;;;;36.35;13.30;;;;;;;7.52;89.22;100268.06;1686090;84;21154;-77
2022/10/29 04:28:43;;;;;;;41.50;12.65;;;;;;;7.51;88.25;100271.92;1687416;82;21031;-79
2022/10/29 04:31:13;;;;;;;32.58;11.95;;;;;;;7.55;88.33;100277.56;1688252;82;21543;-79
2022/10/29 04:33:41;;;;;;;29.02;11.33;;;;;;;7.58;87.79;100273.71;1687757;82;21037;-79
2022/10/29 04:36:09;;;;;;;49.40;11.93;;;;;;;7.59;87.36;100276.72;1686055;84;21020;-78
2022/10/29 04:38:38;;;;;;;32.25;12.15;;;;;;;7.56;87.13;100278.02;1707549;82;21928;-78
2022/10/29 04:41:05;;;;;;;30.48;12.15;;;;;;;7.57;87.34;100280.58;1687583;83;21058;-78
2022/10/29 04:43:33;;;;;;;32.05;11.75;;;;;;;7.56;87.33;100281.89;1681525;85;21067;-79
2022/10/29 04:46:01;;;;;;;26.37;11.80;;;;;;;7.60;88.10;100270.70;1691009;84;21067;-80
2022/10/29 04:48:29;;;;;;;31.68;11.08;;;;;;;7.66;87.90;100270.73;1677132;85;21087;-79
2022/10/29 04:50:56;;;;;;;22.22;10.48;;;;;;;7.64;87.07;100274.15;1699983;84;21008;-79
2022/10/29 04:53:24;;;;;;;29.80;11.03;;;;;;;7.57;87.40;100281.02;1699242;82;21034;-78
2022/10/29 04:56:00;;;;;;;23.85;11.20;;;;;;;7.51;88.79;100277.11;1697080;83;21583;-79
2022/10/29 04:58:27;;;;;;;29.75;11.75;;;;;;;7.50;88.42;100267.59;1676506;85;21064;-78
2022/10/29 05:01:01;;;;;;;18.52;10.32;;;;;;;7.54;88.40;100262.88;1703321;82;21330;-80
2022/10/29 05:03:29;;;;;;;24.15;10.08;;;;;;;7.54;88.12;100270.23;1700328;84;21050;-78
2022/10/29 05:05:57;;;;;;;29.45;11.57;;;;;;;7.49;87.59;100277.09;1680607;85;21096;-79
2022/10/29 05:08:25;;;;;;;23.20;10.98;;;;;;;7.46;88.47;100277.48;1705409;84;21003;-78
2022/10/29 05:10:52;;;;;;;25.48;11.10;;;;;;;7.51;88.87;100283.58;1706302;82;21036;-79
2022/10/29 05:13:20;;;;;;;26.73;12.33;;;;;;;7.57;88.63;100283.61;1700194;84;20992;-78
2022/10/29 05:15:51;;;;;;;25.60;11.73;;;;;;;7.62;88.39;100289.70;1697223;82;21039;-79
2022/10/29 05:18:19;;;;;;;30.62;12.80;;;;;;;7.56;88.46;100286.63;1715044;82;21098;-79
2022/10/29 05:20:47;;;;;;;27.82;11.93;;;;;;;7.58;88.10;100286.65;1715299;83;21039;-79
2022/10/29 05:23:14;;;;;;;30.85;12.23;;;;;;;7.60;88.79;100296.98;1674689;85;21046;-79
2022/10/29 05:25:42;;;;;;;22.75;11.08;;;;;;;7.62;88.37;100287.11;1701497;83;22071;-79
2022/10/29 05:28:17;;;;;;;32.48;12.18;;;;;;;7.65;87.55;100300.48;1685226;85;21071;-79
2022/10/29 05:30:46;;;;;;;23.57;11.48;;;;;;;7.58;88.49;100297.00;1693425;84;21094;-79
2022/10/29 05:33:21;;;;;;;21.37;10.08;;;;;;;7.54;88.41;100297.81;1707867;82;20979;-79
2022/10/29 05:35:49;;;;;;;22.13;10.03;;;;;;;7.57;87.74;100295.25;1679780;85;21038;-78
2022/10/29 05:38:17;;;;;;;22.62;11.18;;;;;;;7.51;87.59;100302.98;1700935;82;21341;-78
2022/10/29 05:40:45;;;;;;;22.85;10.28;;;;;;;7.52;88.04;100308.58;1715258;83;21075;-78
2022/10/29 05:43:14;;;;;;;22.32;10.75;;;;;;;7.53;87.61;100305.16;1711064;83;21051;-79
2022/10/29 05:45:43;;;;;;;21.65;10.28;;;;;;;7.40;87.14;100300.73;1705960;82;21036;-78
2022/10/29 05:48:12;;;;;;;21.27;9.88;;;;;;;7.38;87.85;100317.53;1707278;82;21043;-78
2022/10/29 05:50:39;;;;;;;23.60;11.18;;;;;;;7.39;87.82;100319.72;1681070;83;21595;-78
2022/10/29 05:53:11;;;;;;;23.67;10.85;;;;;;;7.44;88.38;100315.42;1711593;83;21059;-78
2022/10/29 05:55:40;;;;;;;23.60;11.43;;;;;;;7.48;88.33;100318.06;1698703;82;21075;-79
2022/10/29 05:58:13;;;;;;;21.23;11.22;;;;;;;7.53;87.75;100316.80;1694156;83;21106;-79
2022/10/29 06:00:44;;;;;;;22.22;11.53;;;;;;;7.55;87.17;100329.31;1697520;83;21055;-79
2022/10/29 06:03:20;;;;;;;28.83;12.40;;;;;;;7.50;88.24;100334.47;1662836;85;21047;-79
2022/10/29 06:05:50;;;;;;;27.55;12.15;;;;;;;7.49;87.69;100330.57;1705701;82;21124;-80
2022/10/29 06:08:17;;;;;;;25.55;12.03;;;;;;;7.55;88.29;100337.94;1692364;84;21043;-79
2022/10/29 06:10:45;;;;;;;25.62;12.58;;;;;;;7.64;88.91;100334.56;1703941;82;21102;-79
2022/10/29 06:13:17;;;;;;;29.20;12.13;;;;;;;7.74;89.01;100336.36;1706551;82;21008;-80
2022/10/29 06:15:46;;;;;;;25.60;11.90;;;;;;;7.84;88.54;100333.80;1693964;83;20999;-79
2022/10/29 06:18:15;;;;;;;26.48;12.65;;;;;;;7.92;88.37;100330.42;1683323;85;21040;-79
2022/10/29 06:20:42;;;;;;;30.02;12.55;;;;;;;8.00;88.02;100331.75;1707995;83;21027;-80
2022/10/29 06:23:10;;;;;;;23.98;12.58;;;;;;;8.02;87.77;100342.98;1681486;85;21062;-80
2022/10/29 06:25:38;;;;;;;22.73;11.38;;;;;;;8.00;87.08;100339.53;1686326;84;21059;-81
2022/10/29 06:28:14;;;;;;;25.37;11.35;;;;;;;7.91;87.11;100339.47;1683275;84;21019;-78
2022/10/29 06:30:48;;;;;;;19.50;9.88;;;;;;;7.87;87.11;100344.19;1696705;84;20983;-80
2022/10/29 06:33:17;;;;;;;22.55;11.28;;;;;;;7.86;86.75;100342.44;1689800;84;21023;-79
2022/10/29 06:35:45;;;;;;;18.98;10.43;;;;;;;7.83;86.83;100342.44;1691103;84;21598;-79
2022/10/29 06:38:14;;;;;;;22.95;10.80;;;;;;;7.87;87.74;100341.60;1695659;84;21091;-79
2022/10/29 06:40:42;;;;;;;22.58;10.98;;;;;;;7.97;87.16;100342.94;1683795;85;22141;-78
2022/10/29 06:43:11;;;;;;;19.17;10.25;;;;;;;7.99;87.44;100342.95;1684754;82;21046;-78
2022/10/29 06:45:39;;;;;;;19.62;10.38;;;;;;;8.07;87.67;100342.56;1688687;84;21078;-80
2022/10/29 06:48:08;;;;;;;22.70;10.75;;;;;;;8.21;87.42;100351.70;1697394;84;21781;-79
2022/10/29 06:50:36;;;;;;;27.48;11.50;;;;;;;8.24;86.71;100357.34;1664533;85;21019;-84
2022/10/29 06:53:06;;;;;;;25.95;11.25;;;;;;;8.17;87.13;100355.99;1657063;85;21110;-80
2022/10/29 06:55:34;;;;;;;22.82;11.60;;;;;;;8.26;86.81;100358.22;1674060;85;21027;-81
2022/10/29 06:58:10;;;;;;;28.32;11.03;;;;;;;8.28;86.87;100348.73;1693245;82;21055;-79
2022/10/29 07:00:38;;;;;;;22.60;10.38;;;;;;;8.31;86.82;100351.31;1684677;84;21431;-79
2022/10/29 07:03:07;;;;;;;31.40;12.50;;;;;;;8.39;86.78;100352.64;1697122;84;21023;-79
2022/10/29 07:05:35;;;;;;;27.27;11.10;;;;;;;8.46;86.85;100357.03;1699343;84;21030;-79
2022/10/29 07:08:03;;;;;;;28.02;11.88;;;;;;;8.51;86.83;100356.17;1694068;84;21606;-80
2022/10/29 07:10:32;;;;;;;28.10;12.18;;;;;;;8.62;86.76;100364.44;1697203;84;21007;-80
2022/10/29 07:13:00;;;;;;;29.70;12.65;;;;;;;8.65;86.75;100354.92;1695585;83;21011;-78
2022/10/29 07:15:29;;;;;;;28.17;12.70;;;;;;;8.76;86.28;100353.23;1695961;84;21083;-79
2022/10/29 07:18:03;;;;;;;31.35;11.88;;;;;;;8.74;86.48;100357.55;1653338;85;21023;-79
2022/10/29 07:20:38;;;;;;;27.95;11.38;;;;;;;8.77;86.14;100359.27;1699545;84;21075;-78
2022/10/29 07:23:05;;;;;;;30.08;12.35;;;;;;;8.67;86.26;100351.04;1682725;85;21023;-80
2022/10/29 07:25:35;;;;;;;32.17;12.50;;;;;;;8.68;86.17;100356.23;1697339;82;21641;-80
2022/10/29 07:28:05;;;;;;;29.48;12.03;;;;;;;8.74;86.42;100359.28;1706166;82;21622;-79
2022/10/29 07:30:33;;;;;;;23.87;11.70;;;;;;;8.80;86.65;100360.59;1694127;84;21075;-82
2022/10/29 07:33:01;;;;;;;31.27;12.43;;;;;;;8.91;86.59;100357.59;1678376;85;21513;-79
2022/10/29 07:35:29;;;;;;;24.75;11.70;;;;;;;9.06;86.60;100353.30;1685680;85;21031;-78
2022/10/29 07:38:02;;;;;;;27.07;12.28;;;;;;;9.18;86.31;100344.66;1685780;84;21015;-80
2022/10/29 07:40:30;;;;;;;25.62;11.57;;;;;;;9.31;85.87;100343.77;1695370;82;21956;-78
2022/10/29 07:42:57;;;;;;;30.92;12.30;;;;;;;9.27;85.47;100353.31;1675385;85;21570;-79
2022/10/29 07:45:25;;;;;;;22.15;10.95;;;;;;;9.32;85.41;100352.86;1709207;84;21031;-80
2022/10/29 07:48:02;;;;;;;26.57;11.88;;;;;;;9.31;85.32;100343.77;1672300;85;21088;-78
2022/10/29 07:50:31;;;;;;;22.93;11.48;;;;;;;9.32;85.46;100342.92;1705374;82;21004;-79
2022/10/29 07:52:59;;;;;;;24.87;12.33;;;;;;;9.42;85.83;100343.79;1699946;84;21015;-79
2022/10/29 07:55:28;;;;;;;22.45;11.25;;;;;;;9.51;85.24;100338.57;1692800;84;21000;-79
2022/10/29 07:58:00;;;;;;;30.37;13.65;;;;;;;9.55;85.18;100348.97;1686282;84;21047;-79
2022/10/29 08:00:29;;;;;;;30.72;14.05;;;;;;;9.63;84.90;100345.08;1689719;84;21052;-79
2022/10/29 08:02:57;;;;;;;33.18;12.85;;;;;;;9.75;85.00;100337.70;1672727;85;21035;-78
2022/10/29 08:05:26;;;;;;;35.00;13.75;;;;;;;9.73;84.29;100332.95;1701827;83;21094;-83
2022/10/29 08:07:55;;;;;;;29.02;12.82;;;;;;;9.78;84.48;100334.22;1686679;84;21071;-80
2022/10/29 08:10:24;;;;;;;28.70;13.68;;;;;;;9.88;84.64;100328.14;1706390;84;21070;-78
2022/10/29 08:12:54;;;;;;;29.00;13.43;;;;;;;10.02;84.30;100328.09;1700660;82;21007;-79
2022/10/29 08:15:23;;;;;;;29.80;13.30;;;;;;;10.08;83.81;100326.78;1707910;84;21043;-79
2022/10/29 08:17:50;;;;;;;31.82;13.10;;;;;;;10.10;83.97;100331.53;1657180;84;21032;-80
2022/10/29 08:20:18;;;;;;;32.70;14.28;;;;;;;10.15;83.85;100325.90;1635722;86;21103;-79
2022/10/29 08:22:46;;;;;;;24.43;12.07;;;;;;;10.10;83.09;100328.48;1647944;85;21019;-79
2022/10/29 08:25:15;;;;;;;28.27;12.73;;;;;;;10.05;83.41;100330.70;1635964;87;21175;-80
2022/10/29 08:27:43;;;;;;;26.77;13.25;;;;;;;9.94;83.59;100325.52;1630577;85;21515;-79
2022/10/29 08:30:13;;;;;;;26.95;13.43;;;;;;;9.96;83.45;100323.78;1628428;86;21071;-79
2022/10/29 08:32:46;;;;;;;27.25;12.58;;;;;;;10.03;83.67;100316.41;1622388;87;21585;-79
2022/10/29 08:35:14;;;;;;;28.47;12.90;;;;;;;10.09;83.65;100321.58;1635025;86;21718;-79
2022/10/29 08:37:43;;;;;;;32.08;14.15;;;;;;;10.18;83.42;100318.07;1630386;87;21011;-80
2022/10/29 08:40:24;;;;;;;29.15;11.93;;;;;;;10.13;83.42;100316.80;1615657;86;21076;-79
2022/10/29 08:43:38;;;;;;;25.37;12.80;;;;;;;10.18;83.50;100314.62;1628698;86;21506;-79
2022/10/29 08:46:29;;;;;;;25.70;12.03;;;;;;;10.28;83.15;100297.66;1649467;86;21080;-81
2022/10/29 08:49:02;;;;;;;20.30;11.08;;;;;;;10.42;83.17;100292.43;1623342;87;21045;-78
2022/10/29 08:51:35;;;;;;;23.20;10.98;;;;;;;10.52;82.41;100288.05;1634291;86;21610;-80
2022/10/29 08:54:03;;;;;;;26.05;11.35;;;;;;;10.57;82.67;100283.70;1653484;85;21059;-79
2022/10/29 08:56:36;;;;;;;23.45;11.12;;;;;;;10.59;82.55;100288.45;1635871;88;21611;-78
2022/10/29 08:59:20;;;;;;;17.55;10.28;;;;;;;10.57;81.94;100278.94;1652620;86;20984;-81
2022/10/29 09:01:49;;;;;;;22.93;11.60;;;;;;;10.59;82.19;100277.19;1635955;86;21073;-79
2022/10/29 09:04:32;;;;;;;24.75;11.03;;;;;;;10.66;82.24;100270.61;1663590;85;21065;-79
2022/10/29 09:07:03;;;;;;;;;;;;;;;10.70;82.19;100266.27;1625723;88;21135;-80
2022/10/29 09:10:02;;;;;;;19.52;9.50;;;;;;;10.75;82.17;100262.76;1649357;85;20142;-79
2022/10/29 09:12:55;;;;;;;21.40;9.83;;;;;;;10.68;81.41;100260.20;1635558;86;21446;-80
2022/10/29 09:15:34;;;;;;;18.98;9.68;;;;;;;10.59;81.95;100248.59;1632285;86;20985;-79
2022/10/29 09:18:22;;;;;;;18.80;9.70;;;;;;;10.59;82.35;100242.09;1645246;86;21052;-78
2022/10/29 09:21:06;;;;;;;16.05;9.10;;;;;;;10.67;82.28;100245.50;1688974;83;21095;-78
2022/10/29 09:24:02;;;;;;;21.50;10.38;;;;;;;10.68;82.13;100238.10;1684991;85;21356;-79
2022/10/29 09:26:35;;;;;;;20.32;10.72;;;;;;;10.71;82.14;100245.45;1692216;82;21494;-81
2022/10/29 09:29:33;;;;;;;19.80;11.33;;;;;;;10.79;82.37;100234.99;1680334;85;21012;-79
2022/10/29 09:32:12;;;;;;;24.60;12.43;;;;;;;10.90;81.78;100226.67;1705627;84;21296;-79
2022/10/29 09:34:53;;;;;;;27.05;12.43;;;;;;;10.95;81.94;100222.72;1693079;83;21035;-78
2022/10/29 09:37:41;;;;;;;20.85;11.53;;;;;;;11.03;81.95;100223.97;1671902;85;21102;-78
2022/10/29 09:40:37;;;;;;;30.82;13.48;;;;;;;11.13;82.09;100223.00;1702252;82;21571;-80
2022/10/29 09:43:39;;;;;;;31.40;12.63;;;;;;;11.29;81.81;100222.41;1702054;84;21039;-79
2022/10/29 09:46:30;;;;;;;22.22;12.25;;;;;;;11.43;82.12;100215.76;1686900;82;21059;-79
2022/10/29 09:49:23;;;;;;;21.80;11.63;;;;;;;11.66;81.55;100208.55;1672990;84;22137;-79
2022/10/29 09:52:07;;;;;;;23.92;12.20;;;;;;;11.81;81.27;100205.34;1694782;84;21546;-78
2022/10/29 09:54:35;;;;;;;22.10;11.15;;;;;;;11.98;81.41;100205.14;1678278;84;21055;-80
2022/10/29 09:57:04;;;;;;;16.60;10.60;;;;;;;12.14;80.86;100200.16;1701838;84;21289;-80
2022/10/29 09:59:39;;;;;;;24.12;10.98;;;;;;;12.27;80.87;100193.88;1660745;85;22172;-79
2022/10/29 10:02:25;;;;;;;17.07;9.88;;;;;;;12.42;80.27;100198.02;1689748;84;21039;-80
2022/10/29 10:04:56;;;;;;;19.12;10.15;;;;;;;12.54;80.16;100197.83;1669177;84;21535;-78
2022/10/29 10:07:24;;;;;;;18.50;9.93;;;;;;;12.74;80.58;100188.38;1699935;83;21094;-79
2022/10/29 10:10:01;;;;;;;25.05;10.25;;;;;;;12.91;80.13;100188.10;1703297;84;21122;-79
2022/10/29 10:12:43;;;;;;;16.17;8.80;;;;;;;13.10;79.81;100179.94;1698239;83;21070;-79
2022/10/29 10:15:30;;;;;;;17.15;9.10;;;;;;;13.25;79.17;100167.91;1703826;84;21016;-80
2022/10/29 10:18:15;;;;;;;19.32;9.60;;;;;;;13.34;79.28;100166.90;1693760;83;21103;-79
2022/10/29 10:20:48;;;;;;;14.83;8.45;;;;;;;13.52;79.13;100164.37;1703248;82;21521;-80
2022/10/29 10:23:26;;;;;;;19.23;10.27;;;;;;;13.73;79.26;100160.47;1710297;83;21082;-80
2022/10/29 10:25:57;;;;;;;28.15;12.00;;;;;;;13.96;78.97;100159.95;1720283;82;22295;-79
2022/10/29 10:28:28;;;;;;;21.87;11.78;;;;;;;14.15;78.22;100150.41;1708998;82;21569;-80
2022/10/29 10:31:12;;;;;;;20.00;10.70;;;;;;;14.35;77.39;100152.56;1674598;85;21010;-79
2022/10/29 10:33:50;;;;;;;22.52;10.68;;;;;;;14.52;77.72;100141.22;1687473;83;21576;-79
2022/10/29 10:36:22;;;;;;;18.17;10.30;;;;;;;14.75;76.84;100136.77;1671354;84;21630;-79
2022/10/29 10:38:57;;;;;;;21.60;10.10;;;;;;;14.93;76.07;100134.11;1681619;84;21015;-79
2022/10/29 10:41:32;;;;;;;24.23;10.40;;;;;;;15.10;76.00;100124.05;1686135;85;21066;-80
2022/10/29 10:44:03;;;;;;;24.72;10.53;;;;;;;15.23;75.43;100123.25;1662492;85;21064;-80
2022/10/29 10:46:41;;;;;;;20.50;9.63;;;;;;;15.39;74.03;100114.51;1686227;85;21098;-79
2022/10/29 10:49:36;;;;;;;20.05;9.40;;;;;;;15.57;75.28;100113.58;1677817;84;21036;-80
2022/10/29 10:52:15;;;;;;;19.87;10.23;;;;;;;15.80;75.28;100101.98;1683781;85;21038;-79
2022/10/29 10:54:58;;;;;;;20.55;9.95;;;;;;;16.01;73.33;100105.69;1679342;85;21008;-79
2022/10/29 10:57:32;;;;;;;18.45;10.40;;;;;;;16.13;73.52;100097.04;1682288;85;20952;-79
2022/10/29 11:00:19;;;;;;;19.75;9.70;;;;;;;16.32;73.68;100096.86;1678118;84;21065;-79
2022/10/29 11:02:55;;;;;;;17.77;10.75;;;;;;;16.40;72.37;100090.05;1667915;85;21080;-79
2022/10/29 11:05:36;;;;;;;21.23;10.05;;;;;;;16.54;72.51;100087.81;1671742;84;21012;-80
2022/10/29 11:08:20;;;;;;;19.27;9.88;;;;;;;16.64;70.51;100089.20;1661348;84;21060;-83
2022/10/29 11:10:53;;;;;;;20.30;10.50;;;;;;;16.79;71.08;100083.90;1665846;84;21086;-80
2022/10/29 11:13:24;;;;;;;22.67;10.18;;;;;;;16.96;70.37;100085.95;1672690;85;21478;-78
2022/10/29 11:16:00;;;;;;;17.98;10.23;;;;;;;17.20;69.78;100086.83;1663383;84;21019;-80
2022/10/29 11:18:35;;;;;;;19.05;10.23;;;;;;;17.39;69.36;100088.34;1689470;83;21039;-80
2022/10/29 11:21:17;;;;;;;20.45;10.03;;;;;;;17.55;68.32;100091.24;1708642;82;21022;-80
2022/10/29 11:24:06;;;;;;;19.82;10.00;;;;;;;17.71;68.49;100084.94;1677279;85;21034;-79
2022/10/29 11:26:50;;;;;;;16.80;9.75;;;;;;;17.81;67.88;100081.50;1673316;84;21091;-79
2022/10/29 11:29:48;;;;;;;21.10;10.40;;;;;;;17.92;67.79;100083.25;1661107;85;21067;-83
2022/10/29 11:32:36;;;;;;;18.32;9.15;;;;;;;17.99;67.31;100072.05;1675441;83;21065;-79
2022/10/29 11:35:15;;;;;;;16.40;9.63;;;;;;;18.11;67.22;100065.44;1676571;85;21865;-78
2022/10/29 11:37:55;;;;;;;18.82;10.35;;;;;;;18.48;67.49;100073.95;1701921;82;21001;-79
2022/10/29 11:40:36;;;;;;;21.95;9.85;;;;;;;18.79;67.07;100066.95;1687884;85;21011;-80
2022/10/29 11:43:13;;;;;;;19.20;8.85;;;;;;;19.13;67.24;100064.14;1672020;84;21024;-80
2022/10/29 11:46:29;;;;;;;22.95;10.25;;;;;;;19.48;65.79;100062.54;1687849;84;21011;-81